sensor_id;sensor_type;location;lat;lon;timestamp;P1;durP1;ratioP1;P2;durP2;ratioP2
69835;SDS011;57132;51.972;4.450;2022-09-09T00:04:13;14.73;;;11.95;;
69835;SDS011;57132;51.972;4.450;2022-09-09T00:09:21;21.75;;;12.93;;
69835;SDS011;57132;51.972;4.450;2022-09-09T00:11:52;16.35;;;12.07;;
69835;SDS011;57132;51.972;4.450;2022-09-09T00:14:24;18.17;;;13.75;;
69835;SDS011;57132;51.972;4.450;2022-09-09T00:17:00;18.08;;;11.60;;
69835;SDS011;57132;51.972;4.450;2022-09-09T00:19:41;16.77;;;10.93;;
69835;SDS011;57132;51.972;4.450;2022-09-09T00:24:46;24.05;;;12.13;;
69835;SDS011;57132;51.972;4.450;2022-09-09T00:32:50;21.83;;;14.23;;
69835;SDS011;57132;51.972;4.450;2022-09-09T00:35:23;21.40;;;13.40;;
69835;SDS011;57132;51.972;4.450;2022-09-09T00:37:53;26.23;;;12.35;;
69835;SDS011;57132;51.972;4.450;2022-09-09T00:40:23;20.67;;;13.98;;
69835;SDS011;57132;51.972;4.450;2022-09-09T00:48:52;25.98;;;13.98;;
69835;SDS011;57132;51.972;4.450;2022-09-09T01:08:49;18.27;;;10.52;;
69835;SDS011;57132;51.972;4.450;2022-09-09T01:11:20;16.60;;;11.73;;
69835;SDS011;57132;51.972;4.450;2022-09-09T01:13:49;15.15;;;7.75;;
69835;SDS011;57132;51.972;4.450;2022-09-09T01:16:24;12.55;;;8.50;;
69835;SDS011;57132;51.972;4.450;2022-09-09T01:18:52;13.75;;;6.85;;
69835;SDS011;57132;51.972;4.450;2022-09-09T01:26:56;16.85;;;7.43;;
69835;SDS011;57132;51.972;4.450;2022-09-09T01:29:26;10.23;;;5.72;;
69835;SDS011;57132;51.972;4.450;2022-09-09T01:34:22;9.52;;;5.97;;
69835;SDS011;57132;51.972;4.450;2022-09-09T01:36:56;9.40;;;4.45;;
69835;SDS011;57132;51.972;4.450;2022-09-09T01:39:22;14.27;;;5.55;;
69835;SDS011;57132;51.972;4.450;2022-09-09T01:41:47;11.98;;;4.50;;
69835;SDS011;57132;51.972;4.450;2022-09-09T01:44:13;11.57;;;6.25;;
69835;SDS011;57132;51.972;4.450;2022-09-09T01:46:38;10.68;;;5.13;;
69835;SDS011;57132;51.972;4.450;2022-09-09T01:49:05;10.45;;;5.30;;
69835;SDS011;57132;51.972;4.450;2022-09-09T01:51:32;10.68;;;5.20;;
69835;SDS011;57132;51.972;4.450;2022-09-09T01:53:58;11.77;;;6.55;;
69835;SDS011;57132;51.972;4.450;2022-09-09T01:56:28;18.73;;;10.40;;
69835;SDS011;57132;51.972;4.450;2022-09-09T02:01:56;14.18;;;7.60;;
69835;SDS011;57132;51.972;4.450;2022-09-09T02:07:15;13.13;;;6.93;;
69835;SDS011;57132;51.972;4.450;2022-09-09T02:09:56;11.95;;;5.95;;
69835;SDS011;57132;51.972;4.450;2022-09-09T02:12:25;8.90;;;5.55;;
69835;SDS011;57132;51.972;4.450;2022-09-09T02:14:56;11.98;;;8.35;;
69835;SDS011;57132;51.972;4.450;2022-09-09T02:17:30;11.55;;;5.65;;
69835;SDS011;57132;51.972;4.450;2022-09-09T02:20:05;13.02;;;6.28;;
69835;SDS011;57132;51.972;4.450;2022-09-09T02:22:33;11.13;;;5.80;;
69835;SDS011;57132;51.972;4.450;2022-09-09T02:25:02;9.88;;;5.70;;
69835;SDS011;57132;51.972;4.450;2022-09-09T02:27:30;8.05;;;5.13;;
69835;SDS011;57132;51.972;4.450;2022-09-09T02:29:56;11.20;;;6.43;;
69835;SDS011;57132;51.972;4.450;2022-09-09T02:32:27;9.98;;;6.72;;
69835;SDS011;57132;51.972;4.450;2022-09-09T02:34:56;9.00;;;7.50;;
69835;SDS011;57132;51.972;4.450;2022-09-09T02:37:27;9.70;;;6.18;;
69835;SDS011;57132;51.972;4.450;2022-09-09T02:39:59;15.38;;;9.20;;
69835;SDS011;57132;51.972;4.450;2022-09-09T02:42:25;11.13;;;6.20;;
69835;SDS011;57132;51.972;4.450;2022-09-09T02:44:50;9.60;;;5.53;;
69835;SDS011;57132;51.972;4.450;2022-09-09T02:58:11;18.35;;;12.43;;
69835;SDS011;57132;51.972;4.450;2022-09-09T03:00:42;14.82;;;8.38;;
69835;SDS011;57132;51.972;4.450;2022-09-09T03:03:10;14.25;;;8.52;;
69835;SDS011;57132;51.972;4.450;2022-09-09T03:05:36;19.10;;;7.57;;
69835;SDS011;57132;51.972;4.450;2022-09-09T03:08:02;16.27;;;11.93;;
69835;SDS011;57132;51.972;4.450;2022-09-09T03:10:29;16.45;;;9.10;;
69835;SDS011;57132;51.972;4.450;2022-09-09T03:12:54;18.83;;;13.88;;
69835;SDS011;57132;51.972;4.450;2022-09-09T03:15:20;10.30;;;7.72;;
69835;SDS011;57132;51.972;4.450;2022-09-09T03:17:45;16.42;;;10.48;;
69835;SDS011;57132;51.972;4.450;2022-09-09T03:20:12;16.38;;;14.52;;
69835;SDS011;57132;51.972;4.450;2022-09-09T03:22:37;13.50;;;7.72;;
69835;SDS011;57132;51.972;4.450;2022-09-09T03:25:02;16.45;;;14.13;;
69835;SDS011;57132;51.972;4.450;2022-09-09T03:27:28;13.48;;;8.75;;
69835;SDS011;57132;51.972;4.450;2022-09-09T03:29:54;10.07;;;7.47;;
69835;SDS011;57132;51.972;4.450;2022-09-09T03:32:20;18.65;;;12.93;;
69835;SDS011;57132;51.972;4.450;2022-09-09T03:34:47;14.00;;;11.75;;
69835;SDS011;57132;51.972;4.450;2022-09-09T03:37:14;14.35;;;12.50;;
69835;SDS011;57132;51.972;4.450;2022-09-09T03:39:40;16.75;;;12.98;;
69835;SDS011;57132;51.972;4.450;2022-09-09T03:42:06;11.50;;;7.85;;
69835;SDS011;57132;51.972;4.450;2022-09-09T03:44:31;13.10;;;9.98;;
69835;SDS011;57132;51.972;4.450;2022-09-09T03:46:57;9.43;;;8.52;;
69835;SDS011;57132;51.972;4.450;2022-09-09T03:49:25;17.05;;;15.25;;
69835;SDS011;57132;51.972;4.450;2022-09-09T03:51:53;11.25;;;9.10;;
69835;SDS011;57132;51.972;4.450;2022-09-09T03:54:19;17.38;;;16.05;;
69835;SDS011;57132;51.972;4.450;2022-09-09T03:56:44;13.57;;;8.57;;
69835;SDS011;57132;51.972;4.450;2022-09-09T03:59:10;17.73;;;16.13;;
69835;SDS011;57132;51.972;4.450;2022-09-09T04:01:35;14.80;;;10.82;;
69835;SDS011;57132;51.972;4.450;2022-09-09T04:04:01;12.27;;;10.60;;
69835;SDS011;57132;51.972;4.450;2022-09-09T04:06:27;21.50;;;19.52;;
69835;SDS011;57132;51.972;4.450;2022-09-09T04:08:53;20.52;;;18.50;;
69835;SDS011;57132;51.972;4.450;2022-09-09T04:11:20;10.93;;;9.77;;
69835;SDS011;57132;51.972;4.450;2022-09-09T04:13:45;15.13;;;12.70;;
69835;SDS011;57132;51.972;4.450;2022-09-09T04:16:11;19.95;;;17.90;;
69835;SDS011;57132;51.972;4.450;2022-09-09T04:18:40;12.73;;;9.68;;
69835;SDS011;57132;51.972;4.450;2022-09-09T04:21:06;18.55;;;10.75;;
69835;SDS011;57132;51.972;4.450;2022-09-09T04:23:33;20.42;;;18.33;;
69835;SDS011;57132;51.972;4.450;2022-09-09T04:25:59;14.98;;;12.23;;
69835;SDS011;57132;51.972;4.450;2022-09-09T04:28:27;19.05;;;12.63;;
69835;SDS011;57132;51.972;4.450;2022-09-09T04:30:54;15.52;;;12.13;;
69835;SDS011;57132;51.972;4.450;2022-09-09T04:33:23;21.20;;;17.85;;
69835;SDS011;57132;51.972;4.450;2022-09-09T04:35:50;13.40;;;10.18;;
69835;SDS011;57132;51.972;4.450;2022-09-09T04:38:18;18.55;;;10.10;;
69835;SDS011;57132;51.972;4.450;2022-09-09T04:40:47;11.38;;;8.98;;
69835;SDS011;57132;51.972;4.450;2022-09-09T04:43:12;18.52;;;14.70;;
69835;SDS011;57132;51.972;4.450;2022-09-09T04:45:39;15.07;;;11.27;;
69835;SDS011;57132;51.972;4.450;2022-09-09T04:48:05;15.05;;;9.43;;
69835;SDS011;57132;51.972;4.450;2022-09-09T04:50:31;15.38;;;9.05;;
69835;SDS011;57132;51.972;4.450;2022-09-09T04:52:59;13.82;;;10.35;;
69835;SDS011;57132;51.972;4.450;2022-09-09T04:55:25;12.73;;;9.95;;
69835;SDS011;57132;51.972;4.450;2022-09-09T04:57:51;17.60;;;11.68;;
69835;SDS011;57132;51.972;4.450;2022-09-09T05:00:16;14.10;;;9.05;;
69835;SDS011;57132;51.972;4.450;2022-09-09T05:02:42;24.40;;;16.60;;
69835;SDS011;57132;51.972;4.450;2022-09-09T05:05:07;11.77;;;9.65;;
69835;SDS011;57132;51.972;4.450;2022-09-09T05:07:33;12.30;;;8.18;;
69835;SDS011;57132;51.972;4.450;2022-09-09T05:09:58;15.45;;;8.70;;
69835;SDS011;57132;51.972;4.450;2022-09-09T05:12:24;15.43;;;7.93;;
69835;SDS011;57132;51.972;4.450;2022-09-09T05:14:50;14.05;;;7.82;;
69835;SDS011;57132;51.972;4.450;2022-09-09T05:17:16;16.27;;;8.15;;
69835;SDS011;57132;51.972;4.450;2022-09-09T05:19:42;18.05;;;11.35;;
69835;SDS011;57132;51.972;4.450;2022-09-09T05:22:08;15.07;;;8.90;;
69835;SDS011;57132;51.972;4.450;2022-09-09T05:24:33;13.98;;;10.63;;
69835;SDS011;57132;51.972;4.450;2022-09-09T05:26:58;12.75;;;7.75;;
69835;SDS011;57132;51.972;4.450;2022-09-09T05:29:26;16.98;;;7.70;;
69835;SDS011;57132;51.972;4.450;2022-09-09T05:31:52;10.65;;;6.00;;
69835;SDS011;57132;51.972;4.450;2022-09-09T05:34:17;14.13;;;8.15;;
69835;SDS011;57132;51.972;4.450;2022-09-09T05:36:43;16.02;;;8.60;;
69835;SDS011;57132;51.972;4.450;2022-09-09T05:39:08;11.70;;;8.48;;
69835;SDS011;57132;51.972;4.450;2022-09-09T05:41:34;17.10;;;9.40;;
69835;SDS011;57132;51.972;4.450;2022-09-09T05:44:01;15.82;;;9.88;;
69835;SDS011;57132;51.972;4.450;2022-09-09T05:46:26;17.17;;;14.20;;
69835;SDS011;57132;51.972;4.450;2022-09-09T05:48:52;14.85;;;8.23;;
69835;SDS011;57132;51.972;4.450;2022-09-09T05:51:25;11.27;;;10.07;;
69835;SDS011;57132;51.972;4.450;2022-09-09T05:53:53;17.30;;;11.52;;
69835;SDS011;57132;51.972;4.450;2022-09-09T05:56:21;21.02;;;11.05;;
69835;SDS011;57132;51.972;4.450;2022-09-09T05:58:49;17.35;;;10.27;;
69835;SDS011;57132;51.972;4.450;2022-09-09T06:01:16;12.88;;;10.15;;
69835;SDS011;57132;51.972;4.450;2022-09-09T06:03:43;16.33;;;9.70;;
69835;SDS011;57132;51.972;4.450;2022-09-09T06:06:11;21.75;;;19.70;;
69835;SDS011;57132;51.972;4.450;2022-09-09T06:08:39;23.30;;;21.20;;
69835;SDS011;57132;51.972;4.450;2022-09-09T06:11:07;15.82;;;12.93;;
69835;SDS011;57132;51.972;4.450;2022-09-09T06:13:34;17.48;;;12.88;;
69835;SDS011;57132;51.972;4.450;2022-09-09T06:16:02;19.38;;;14.35;;
69835;SDS011;57132;51.972;4.450;2022-09-09T06:18:29;14.98;;;12.88;;
69835;SDS011;57132;51.972;4.450;2022-09-09T06:20:58;23.08;;;12.45;;
69835;SDS011;57132;51.972;4.450;2022-09-09T06:23:25;22.80;;;20.67;;
69835;SDS011;57132;51.972;4.450;2022-09-09T06:25:51;17.30;;;13.60;;
69835;SDS011;57132;51.972;4.450;2022-09-09T06:28:25;15.55;;;13.93;;
69835;SDS011;57132;51.972;4.450;2022-09-09T06:30:56;24.42;;;21.83;;
69835;SDS011;57132;51.972;4.450;2022-09-09T06:33:33;18.65;;;13.05;;
69835;SDS011;57132;51.972;4.450;2022-09-09T06:36:00;16.95;;;10.75;;
69835;SDS011;57132;51.972;4.450;2022-09-09T06:38:26;15.75;;;12.80;;
69835;SDS011;57132;51.972;4.450;2022-09-09T06:40:56;26.33;;;24.02;;
69835;SDS011;57132;51.972;4.450;2022-09-09T06:43:24;27.50;;;14.77;;
69835;SDS011;57132;51.972;4.450;2022-09-09T06:45:58;19.77;;;15.57;;
69835;SDS011;57132;51.972;4.450;2022-09-09T06:48:24;31.20;;;26.33;;
69835;SDS011;57132;51.972;4.450;2022-09-09T06:50:51;28.42;;;23.48;;
69835;SDS011;57132;51.972;4.450;2022-09-09T06:53:25;18.90;;;14.10;;
69835;SDS011;57132;51.972;4.450;2022-09-09T06:55:52;28.52;;;25.45;;
69835;SDS011;57132;51.972;4.450;2022-09-09T06:58:17;24.90;;;16.58;;
69835;SDS011;57132;51.972;4.450;2022-09-09T07:00:43;27.00;;;24.35;;
69835;SDS011;57132;51.972;4.450;2022-09-09T07:03:09;21.58;;;13.88;;
69835;SDS011;57132;51.972;4.450;2022-09-09T07:05:35;26.13;;;20.63;;
69835;SDS011;57132;51.972;4.450;2022-09-09T07:08:01;24.08;;;21.73;;
69835;SDS011;57132;51.972;4.450;2022-09-09T07:10:27;22.48;;;20.33;;
69835;SDS011;57132;51.972;4.450;2022-09-09T07:12:52;21.00;;;18.83;;
69835;SDS011;57132;51.972;4.450;2022-09-09T07:15:18;20.38;;;18.48;;
69835;SDS011;57132;51.972;4.450;2022-09-09T07:17:43;25.17;;;19.63;;
69835;SDS011;57132;51.972;4.450;2022-09-09T07:20:09;23.13;;;18.73;;
69835;SDS011;57132;51.972;4.450;2022-09-09T07:22:34;21.58;;;19.30;;
69835;SDS011;57132;51.972;4.450;2022-09-09T07:25:00;24.73;;;19.65;;
69835;SDS011;57132;51.972;4.450;2022-09-09T07:27:27;20.95;;;18.80;;
69835;SDS011;57132;51.972;4.450;2022-09-09T07:29:52;20.67;;;18.75;;
69835;SDS011;57132;51.972;4.450;2022-09-09T07:32:19;31.83;;;27.73;;
69835;SDS011;57132;51.972;4.450;2022-09-09T07:34:45;18.73;;;16.90;;
69835;SDS011;57132;51.972;4.450;2022-09-09T07:37:11;23.50;;;21.17;;
69835;SDS011;57132;51.972;4.450;2022-09-09T07:39:38;19.55;;;15.95;;
69835;SDS011;57132;51.972;4.450;2022-09-09T07:42:04;24.80;;;17.95;;
69835;SDS011;57132;51.972;4.450;2022-09-09T07:44:30;19.17;;;14.13;;
69835;SDS011;57132;51.972;4.450;2022-09-09T07:46:59;20.45;;;17.25;;
69835;SDS011;57132;51.972;4.450;2022-09-09T07:49:25;22.75;;;18.42;;
69835;SDS011;57132;51.972;4.450;2022-09-09T07:51:50;19.15;;;17.25;;
69835;SDS011;57132;51.972;4.450;2022-09-09T07:54:17;31.58;;;28.27;;
69835;SDS011;57132;51.972;4.450;2022-09-09T07:56:48;21.17;;;18.90;;
69835;SDS011;57132;51.972;4.450;2022-09-09T07:59:14;19.67;;;16.38;;
69835;SDS011;57132;51.972;4.450;2022-09-09T08:01:44;18.30;;;16.70;;
69835;SDS011;57132;51.972;4.450;2022-09-09T08:06:42;51.45;;;47.85;;
69835;SDS011;57132;51.972;4.450;2022-09-09T08:09:11;49.75;;;45.67;;
69835;SDS011;57132;51.972;4.450;2022-09-09T08:11:37;40.33;;;36.72;;
69835;SDS011;57132;51.972;4.450;2022-09-09T08:14:04;27.45;;;25.35;;
69835;SDS011;57132;51.972;4.450;2022-09-09T08:16:30;43.00;;;39.92;;
69835;SDS011;57132;51.972;4.450;2022-09-09T08:18:58;30.40;;;27.65;;
69835;SDS011;57132;51.972;4.450;2022-09-09T08:21:24;24.70;;;22.60;;
69835;SDS011;57132;51.972;4.450;2022-09-09T08:23:55;28.27;;;24.25;;
69835;SDS011;57132;51.972;4.450;2022-09-09T08:26:22;32.70;;;29.67;;
69835;SDS011;57132;51.972;4.450;2022-09-09T08:28:50;36.40;;;33.55;;
69835;SDS011;57132;51.972;4.450;2022-09-09T08:31:18;30.17;;;27.63;;
69835;SDS011;57132;51.972;4.450;2022-09-09T08:33:45;32.30;;;29.65;;
69835;SDS011;57132;51.972;4.450;2022-09-09T08:36:12;51.55;;;48.00;;
69835;SDS011;57132;51.972;4.450;2022-09-09T08:38:52;36.78;;;34.00;;
69835;SDS011;57132;51.972;4.450;2022-09-09T08:43:58;50.60;;;47.33;;
69835;SDS011;57132;51.972;4.450;2022-09-09T08:46:32;36.60;;;33.70;;
69835;SDS011;57132;51.972;4.450;2022-09-09T08:52:21;37.20;;;33.80;;
69835;SDS011;57132;51.972;4.450;2022-09-09T08:54:50;49.97;;;46.25;;
69835;SDS011;57132;51.972;4.450;2022-09-09T08:57:21;34.25;;;31.20;;
69835;SDS011;57132;51.972;4.450;2022-09-09T08:59:53;32.97;;;29.65;;
69835;SDS011;57132;51.972;4.450;2022-09-09T09:13:01;37.53;;;34.53;;
69835;SDS011;57132;51.972;4.450;2022-09-09T09:15:32;32.08;;;29.50;;
69835;SDS011;57132;51.972;4.450;2022-09-09T09:18:02;34.42;;;31.42;;
69835;SDS011;57132;51.972;4.450;2022-09-09T09:20:42;27.88;;;25.60;;
69835;SDS011;57132;51.972;4.450;2022-09-09T09:23:54;46.28;;;42.90;;
69835;SDS011;57132;51.972;4.450;2022-09-09T09:26:21;32.78;;;29.98;;
69835;SDS011;57132;51.972;4.450;2022-09-09T09:28:52;28.73;;;25.33;;
69835;SDS011;57132;51.972;4.450;2022-09-09T09:31:21;27.63;;;22.83;;
69835;SDS011;57132;51.972;4.450;2022-09-09T09:33:52;19.88;;;17.20;;
69835;SDS011;57132;51.972;4.450;2022-09-09T09:36:20;28.90;;;26.58;;
69835;SDS011;57132;51.972;4.450;2022-09-09T09:41:36;20.77;;;18.38;;
69835;SDS011;57132;51.972;4.450;2022-09-09T09:44:05;28.98;;;24.92;;
69835;SDS011;57132;51.972;4.450;2022-09-09T09:46:45;18.13;;;15.00;;
69835;SDS011;57132;51.972;4.450;2022-09-09T09:49:10;21.17;;;14.18;;
69835;SDS011;57132;51.972;4.450;2022-09-09T09:51:35;22.95;;;20.80;;
69835;SDS011;57132;51.972;4.450;2022-09-09T09:56:53;28.52;;;25.92;;
69835;SDS011;57132;51.972;4.450;2022-09-09T10:01:53;30.85;;;27.63;;
69835;SDS011;57132;51.972;4.450;2022-09-09T10:04:20;21.55;;;19.20;;
69835;SDS011;57132;51.972;4.450;2022-09-09T10:06:48;19.50;;;16.60;;
69835;SDS011;57132;51.972;4.450;2022-09-09T10:09:30;16.38;;;13.50;;
69835;SDS011;57132;51.972;4.450;2022-09-09T10:17:44;17.80;;;10.05;;
69835;SDS011;57132;51.972;4.450;2022-09-09T10:20:17;12.63;;;7.57;;
69835;SDS011;57132;51.972;4.450;2022-09-09T10:22:59;18.50;;;11.43;;
69835;SDS011;57132;51.972;4.450;2022-09-09T10:25:47;14.77;;;7.80;;
69835;SDS011;57132;51.972;4.450;2022-09-09T10:31:24;17.15;;;8.38;;
69835;SDS011;57132;51.972;4.450;2022-09-09T10:36:46;11.57;;;7.85;;
69835;SDS011;57132;51.972;4.450;2022-09-09T10:42:07;14.23;;;8.00;;
69835;SDS011;57132;51.972;4.450;2022-09-09T10:50:14;17.70;;;9.32;;
69835;SDS011;57132;51.972;4.450;2022-09-09T10:52:46;13.20;;;8.23;;
69835;SDS011;57132;51.972;4.450;2022-09-09T10:55:27;15.93;;;8.20;;
69835;SDS011;57132;51.972;4.450;2022-09-09T10:58:02;12.57;;;8.13;;
69835;SDS011;57132;51.972;4.450;2022-09-09T11:03:16;17.63;;;14.40;;
69835;SDS011;57132;51.972;4.450;2022-09-09T11:05:56;17.00;;;14.75;;
69835;SDS011;57132;51.972;4.450;2022-09-09T11:08:26;25.40;;;18.48;;
69835;SDS011;57132;51.972;4.450;2022-09-09T11:11:11;31.67;;;29.35;;
69835;SDS011;57132;51.972;4.450;2022-09-09T11:13:44;29.77;;;27.67;;
69835;SDS011;57132;51.972;4.450;2022-09-09T11:21:59;396.58;;;378.08;;
69835;SDS011;57132;51.972;4.450;2022-09-09T11:24:40;144.88;;;137.48;;
69835;SDS011;57132;51.972;4.450;2022-09-09T11:27:14;261.95;;;248.90;;
69835;SDS011;57132;51.972;4.450;2022-09-09T11:32:25;178.57;;;169.23;;
69835;SDS011;57132;51.972;4.450;2022-09-09T11:35:17;121.65;;;115.18;;
69835;SDS011;57132;51.972;4.450;2022-09-09T11:40:45;82.75;;;77.57;;
69835;SDS011;57132;51.972;4.450;2022-09-09T11:43:12;53.42;;;49.67;;
69835;SDS011;57132;51.972;4.450;2022-09-09T11:45:51;30.42;;;27.10;;
69835;SDS011;57132;51.972;4.450;2022-09-09T11:48:25;31.08;;;26.00;;
69835;SDS011;57132;51.972;4.450;2022-09-09T11:51:07;16.50;;;14.52;;
69835;SDS011;57132;51.972;4.450;2022-09-09T11:53:35;21.55;;;16.35;;
69835;SDS011;57132;51.972;4.450;2022-09-09T11:56:12;19.90;;;16.00;;
69835;SDS011;57132;51.972;4.450;2022-09-09T11:58:55;14.55;;;9.07;;
69835;SDS011;57132;51.972;4.450;2022-09-09T12:01:43;14.82;;;10.27;;
69835;SDS011;57132;51.972;4.450;2022-09-09T12:06:52;19.25;;;10.98;;
69835;SDS011;57132;51.972;4.450;2022-09-09T12:09:27;15.23;;;9.80;;
69835;SDS011;57132;51.972;4.450;2022-09-09T12:12:06;17.83;;;9.02;;
69835;SDS011;57132;51.972;4.450;2022-09-09T12:17:25;17.98;;;9.75;;
69835;SDS011;57132;51.972;4.450;2022-09-09T12:22:45;11.82;;;7.97;;
69835;SDS011;57132;51.972;4.450;2022-09-09T12:28:05;13.68;;;8.25;;
69835;SDS011;57132;51.972;4.450;2022-09-09T12:30:47;13.65;;;9.93;;
69835;SDS011;57132;51.972;4.450;2022-09-09T12:33:20;14.70;;;8.55;;
69835;SDS011;57132;51.972;4.450;2022-09-09T12:35:51;13.68;;;8.30;;
69835;SDS011;57132;51.972;4.450;2022-09-09T12:40:56;12.10;;;9.13;;
69835;SDS011;57132;51.972;4.450;2022-09-09T12:43:23;14.93;;;8.93;;
69835;SDS011;57132;51.972;4.450;2022-09-09T12:45:51;19.33;;;8.80;;
69835;SDS011;57132;51.972;4.450;2022-09-09T12:48:23;16.23;;;9.70;;
69835;SDS011;57132;51.972;4.450;2022-09-09T12:50:55;13.23;;;9.18;;
69835;SDS011;57132;51.972;4.450;2022-09-09T12:53:34;12.13;;;8.77;;
69835;SDS011;57132;51.972;4.450;2022-09-09T12:56:02;12.38;;;7.90;;
69835;SDS011;57132;51.972;4.450;2022-09-09T12:58:32;10.88;;;8.15;;
69835;SDS011;57132;51.972;4.450;2022-09-09T13:00:58;12.50;;;7.57;;
69835;SDS011;57132;51.972;4.450;2022-09-09T13:03:25;11.00;;;6.65;;
69835;SDS011;57132;51.972;4.450;2022-09-09T13:05:52;9.15;;;6.30;;
69835;SDS011;57132;51.972;4.450;2022-09-09T13:08:18;12.05;;;8.07;;
69835;SDS011;57132;51.972;4.450;2022-09-09T13:13:23;7.85;;;7.10;;
69835;SDS011;57132;51.972;4.450;2022-09-09T13:18:58;16.10;;;14.88;;
69835;SDS011;57132;51.972;4.450;2022-09-09T13:24:26;19.83;;;18.48;;
69835;SDS011;57132;51.972;4.450;2022-09-09T13:26:58;12.88;;;11.88;;
69835;SDS011;57132;51.972;4.450;2022-09-09T13:29:26;15.45;;;14.35;;
69835;SDS011;57132;51.972;4.450;2022-09-09T13:31:52;16.02;;;14.77;;
69835;SDS011;57132;51.972;4.450;2022-09-09T13:34:29;12.90;;;9.95;;
69835;SDS011;57132;51.972;4.450;2022-09-09T13:36:59;10.13;;;9.18;;
69835;SDS011;57132;51.972;4.450;2022-09-09T13:39:30;11.25;;;10.20;;
69835;SDS011;57132;51.972;4.450;2022-09-09T13:41:58;18.52;;;17.15;;
69835;SDS011;57132;51.972;4.450;2022-09-09T13:44:28;14.73;;;12.35;;
69835;SDS011;57132;51.972;4.450;2022-09-09T13:49:29;11.23;;;7.43;;
69835;SDS011;57132;51.972;4.450;2022-09-09T13:52:11;9.45;;;4.57;;
69835;SDS011;57132;51.972;4.450;2022-09-09T13:54:38;7.63;;;6.68;;
69835;SDS011;57132;51.972;4.450;2022-09-09T13:57:04;13.60;;;7.70;;
69835;SDS011;57132;51.972;4.450;2022-09-09T13:59:30;6.15;;;4.18;;
69835;SDS011;57132;51.972;4.450;2022-09-09T14:01:56;13.25;;;7.85;;
69835;SDS011;57132;51.972;4.450;2022-09-09T14:04:22;7.35;;;3.35;;
69835;SDS011;57132;51.972;4.450;2022-09-09T14:06:47;16.10;;;7.00;;
69835;SDS011;57132;51.972;4.450;2022-09-09T14:09:14;11.02;;;4.72;;
69835;SDS011;57132;51.972;4.450;2022-09-09T14:11:41;8.20;;;7.30;;
69835;SDS011;57132;51.972;4.450;2022-09-09T14:14:07;7.53;;;3.25;;
69835;SDS011;57132;51.972;4.450;2022-09-09T14:16:33;10.38;;;3.90;;
69835;SDS011;57132;51.972;4.450;2022-09-09T14:18:59;8.75;;;3.30;;
69835;SDS011;57132;51.972;4.450;2022-09-09T14:21:25;12.57;;;6.22;;
69835;SDS011;57132;51.972;4.450;2022-09-09T14:23:51;11.43;;;5.20;;
69835;SDS011;57132;51.972;4.450;2022-09-09T14:26:20;7.70;;;4.97;;
69835;SDS011;57132;51.972;4.450;2022-09-09T14:28:46;11.25;;;4.30;;
69835;SDS011;57132;51.972;4.450;2022-09-09T14:31:13;13.50;;;4.57;;
69835;SDS011;57132;51.972;4.450;2022-09-09T14:33:39;12.13;;;3.63;;
69835;SDS011;57132;51.972;4.450;2022-09-09T14:36:05;11.43;;;4.57;;
69835;SDS011;57132;51.972;4.450;2022-09-09T14:38:32;11.65;;;4.93;;
69835;SDS011;57132;51.972;4.450;2022-09-09T14:41:03;18.20;;;14.52;;
69835;SDS011;57132;51.972;4.450;2022-09-09T14:43:29;12.18;;;7.00;;
69835;SDS011;57132;51.972;4.450;2022-09-09T14:45:56;16.08;;;14.75;;
69835;SDS011;57132;51.972;4.450;2022-09-09T14:48:21;27.95;;;26.13;;
69835;SDS011;57132;51.972;4.450;2022-09-09T14:50:47;25.27;;;23.52;;
69835;SDS011;57132;51.972;4.450;2022-09-09T14:53:12;22.90;;;21.15;;
69835;SDS011;57132;51.972;4.450;2022-09-09T14:55:37;112.60;;;106.55;;
69835;SDS011;57132;51.972;4.450;2022-09-09T14:58:03;48.65;;;45.75;;
69835;SDS011;57132;51.972;4.450;2022-09-09T15:00:30;50.55;;;47.42;;
69835;SDS011;57132;51.972;4.450;2022-09-09T15:02:56;136.13;;;128.50;;
69835;SDS011;57132;51.972;4.450;2022-09-09T15:05:21;343.63;;;326.13;;
69835;SDS011;57132;51.972;4.450;2022-09-09T15:07:47;228.65;;;215.63;;
69835;SDS011;57132;51.972;4.450;2022-09-09T15:10:15;190.65;;;180.80;;
69835;SDS011;57132;51.972;4.450;2022-09-09T15:12:42;182.43;;;172.48;;
69835;SDS011;57132;51.972;4.450;2022-09-09T15:15:08;283.90;;;269.70;;
69835;SDS011;57132;51.972;4.450;2022-09-09T15:17:34;312.80;;;296.20;;
69835;SDS011;57132;51.972;4.450;2022-09-09T15:20:01;266.85;;;252.30;;
69835;SDS011;57132;51.972;4.450;2022-09-09T15:22:28;226.30;;;214.02;;
69835;SDS011;57132;51.972;4.450;2022-09-09T15:24:53;143.30;;;135.95;;
69835;SDS011;57132;51.972;4.450;2022-09-09T15:27:19;227.38;;;215.85;;
69835;SDS011;57132;51.972;4.450;2022-09-09T15:29:44;183.40;;;172.82;;
69835;SDS011;57132;51.972;4.450;2022-09-09T15:32:10;137.15;;;129.55;;
69835;SDS011;57132;51.972;4.450;2022-09-09T15:34:37;159.30;;;150.00;;
69835;SDS011;57132;51.972;4.450;2022-09-09T15:37:02;84.80;;;79.63;;
69835;SDS011;57132;51.972;4.450;2022-09-09T15:39:27;79.03;;;73.70;;
69835;SDS011;57132;51.972;4.450;2022-09-09T15:41:53;38.40;;;35.47;;
69835;SDS011;57132;51.972;4.450;2022-09-09T15:44:18;35.63;;;32.75;;
69835;SDS011;57132;51.972;4.450;2022-09-09T15:46:45;29.27;;;26.83;;
69835;SDS011;57132;51.972;4.450;2022-09-09T15:49:18;26.92;;;24.13;;
69835;SDS011;57132;51.972;4.450;2022-09-09T15:51:54;27.50;;;24.95;;
69835;SDS011;57132;51.972;4.450;2022-09-09T15:54:21;24.60;;;22.20;;
69835;SDS011;57132;51.972;4.450;2022-09-09T15:56:53;29.02;;;26.08;;
69835;SDS011;57132;51.972;4.450;2022-09-09T15:59:23;28.00;;;20.05;;
69835;SDS011;57132;51.972;4.450;2022-09-09T16:01:50;25.33;;;17.15;;
69835;SDS011;57132;51.972;4.450;2022-09-09T16:04:16;23.15;;;16.25;;
69835;SDS011;57132;51.972;4.450;2022-09-09T16:06:51;16.13;;;12.82;;
69835;SDS011;57132;51.972;4.450;2022-09-09T16:09:17;23.85;;;18.02;;
69835;SDS011;57132;51.972;4.450;2022-09-09T16:11:43;17.45;;;13.43;;
69835;SDS011;57132;51.972;4.450;2022-09-09T16:14:09;17.42;;;13.57;;
69835;SDS011;57132;51.972;4.450;2022-09-09T16:16:36;17.48;;;11.30;;
69835;SDS011;57132;51.972;4.450;2022-09-09T16:19:19;14.98;;;11.60;;
69835;SDS011;57132;51.972;4.450;2022-09-09T16:21:46;17.35;;;12.55;;
69835;SDS011;57132;51.972;4.450;2022-09-09T16:24:13;20.88;;;13.60;;
69835;SDS011;57132;51.972;4.450;2022-09-09T16:26:44;19.38;;;12.18;;
69835;SDS011;57132;51.972;4.450;2022-09-09T16:29:11;18.65;;;10.30;;
69835;SDS011;57132;51.972;4.450;2022-09-09T16:31:38;14.93;;;10.27;;
69835;SDS011;57132;51.972;4.450;2022-09-09T16:34:04;18.42;;;10.18;;
69835;SDS011;57132;51.972;4.450;2022-09-09T16:36:31;11.52;;;8.90;;
69835;SDS011;57132;51.972;4.450;2022-09-09T16:39:05;12.93;;;9.20;;
69835;SDS011;57132;51.972;4.450;2022-09-09T16:41:32;14.13;;;10.77;;
69835;SDS011;57132;51.972;4.450;2022-09-09T16:43:59;9.82;;;8.40;;
69835;SDS011;57132;51.972;4.450;2022-09-09T16:46:27;15.40;;;13.82;;
69835;SDS011;57132;51.972;4.450;2022-09-09T16:48:55;16.23;;;14.57;;
69835;SDS011;57132;51.972;4.450;2022-09-09T16:51:22;17.58;;;14.10;;
69835;SDS011;57132;51.972;4.450;2022-09-09T16:53:50;18.00;;;10.90;;
69835;SDS011;57132;51.972;4.450;2022-09-09T16:56:17;20.20;;;12.10;;
69835;SDS011;57132;51.972;4.450;2022-09-09T16:58:48;21.38;;;12.40;;
69835;SDS011;57132;51.972;4.450;2022-09-09T17:03:43;16.40;;;11.77;;
69835;SDS011;57132;51.972;4.450;2022-09-09T17:06:12;18.98;;;10.75;;